createdAt,value
2019-01-17T00:02:05.712Z,7.17
2019-01-17T00:04:53.691Z,8.20
2019-01-17T00:07:40.427Z,6.90
2019-01-17T00:10:34.366Z,7.10
2019-01-17T00:13:34.636Z,8.00
2019-01-17T00:16:21.997Z,7.67
2019-01-17T00:19:08.896Z,6.30
2019-01-17T00:21:55.640Z,6.20
2019-01-17T00:24:42.732Z,6.70
2019-01-17T00:27:30.800Z,6.50
2019-01-17T00:30:27.904Z,6.37
2019-01-17T00:33:28.350Z,5.97
2019-01-17T00:36:10.252Z,6.10
2019-01-17T00:38:58.188Z,5.87
2019-01-17T00:41:40.107Z,6.30
2019-01-17T00:44:40.112Z,6.33
2019-01-17T00:47:37.147Z,5.23
2019-01-17T00:50:25.512Z,5.77
2019-01-17T00:53:16.568Z,5.07
2019-01-17T00:56:10.572Z,6.20
2019-01-17T00:59:00.172Z,5.85
2019-01-17T01:01:44.218Z,6.03
2019-01-17T01:04:30.827Z,6.53
2019-01-17T01:07:08.927Z,5.70
2019-01-17T01:09:49.071Z,4.93
2019-01-17T01:12:36.642Z,5.17
2019-01-17T01:15:29.273Z,6.33
2019-01-17T01:18:15.727Z,5.07
2019-01-17T01:21:12.764Z,6.20
2019-01-17T01:23:52.688Z,5.37
2019-01-17T01:26:41.716Z,5.70
2019-01-17T01:29:35.791Z,5.80
2019-01-17T01:32:38.956Z,5.47
2019-01-17T01:35:39.592Z,5.70
2019-01-17T01:38:31.468Z,4.93
2019-01-17T01:41:22.435Z,4.80
2019-01-17T01:44:06.824Z,5.20
2019-01-17T01:46:48.004Z,5.40
2019-01-17T01:49:45.116Z,4.80
2019-01-17T01:52:38.907Z,4.77
2019-01-17T01:55:07.944Z,4.40
2019-01-17T01:57:36.727Z,4.60
2019-01-17T02:00:07.270Z,5.47
2019-01-17T02:02:36.196Z,4.43
2019-01-17T02:05:05.796Z,4.20
2019-01-17T02:07:34.774Z,4.33
2019-01-17T02:10:04.619Z,4.37
2019-01-17T02:12:33.498Z,4.10
2019-01-17T02:15:02.530Z,4.30
2019-01-17T02:17:31.400Z,4.20
2019-01-17T02:20:00.856Z,3.80
2019-01-17T02:22:29.835Z,3.65
2019-01-17T02:24:58.768Z,3.70
2019-01-17T02:27:28.090Z,3.70
2019-01-17T02:29:57.052Z,3.90
2019-01-17T02:32:26.048Z,3.10
2019-01-17T02:34:55.017Z,3.53
2019-01-17T02:37:30.125Z,3.97
2019-01-17T02:39:59.047Z,3.90
2019-01-17T02:42:27.998Z,3.53
2019-01-17T02:44:56.900Z,3.60
2019-01-17T02:47:25.715Z,3.70
2019-01-17T02:49:54.620Z,3.17
2019-01-17T02:52:23.565Z,2.90
2019-01-17T02:54:52.919Z,3.00
2019-01-17T02:57:21.814Z,2.17
2019-01-17T02:59:50.602Z,2.60
2019-01-17T03:02:19.481Z,3.00
2019-01-17T03:04:48.542Z,2.63
2019-01-17T03:07:17.534Z,3.23
2019-01-17T03:09:46.446Z,2.63
2019-01-17T03:12:15.711Z,2.60
2019-01-17T03:14:44.713Z,2.10
2019-01-17T03:17:13.696Z,2.67
2019-01-17T03:19:42.896Z,2.63
2019-01-17T03:22:11.745Z,3.57
2019-01-17T03:24:43.109Z,2.93
2019-01-17T03:27:11.740Z,2.27
2019-01-17T03:29:40.923Z,2.50
2019-01-17T03:32:09.763Z,2.40
2019-01-17T03:34:38.713Z,2.30
2019-01-17T03:37:07.700Z,2.70
2019-01-17T03:39:36.652Z,2.27
2019-01-17T03:42:05.642Z,2.57
2019-01-17T03:44:34.432Z,2.60
2019-01-17T03:47:03.301Z,2.40
2019-01-17T03:49:32.217Z,2.33
2019-01-17T03:52:01.116Z,2.93
2019-01-17T03:54:30.072Z,2.70
2019-01-17T03:56:59.080Z,2.90
2019-01-17T03:59:27.988Z,2.60
2019-01-17T04:01:57.258Z,2.80
2019-01-17T04:04:26.294Z,2.83
2019-01-17T04:06:55.204Z,2.73
2019-01-17T04:09:24.055Z,2.80
2019-01-17T04:11:53.473Z,2.70
2019-01-17T04:14:22.373Z,2.57
2019-01-17T04:16:51.267Z,3.20
2019-01-17T04:19:20.079Z,3.30
2019-01-17T04:21:48.876Z,3.20
2019-01-17T04:24:17.664Z,2.83
2019-01-17T04:26:47.408Z,2.60
2019-01-17T04:29:16.316Z,2.77
2019-01-17T04:31:45.304Z,2.97
2019-01-17T04:34:14.324Z,2.80
2019-01-17T04:36:43.292Z,2.60
2019-01-17T04:39:12.448Z,2.83
2019-01-17T04:41:41.400Z,2.90
2019-01-17T04:44:10.288Z,2.90
2019-01-17T04:46:39.060Z,3.00
2019-01-17T04:49:07.963Z,3.07
2019-01-17T04:51:36.757Z,3.63
2019-01-17T04:54:05.748Z,3.30
2019-01-17T04:56:34.728Z,3.00
2019-01-17T04:59:03.703Z,3.00
2019-01-17T05:01:32.665Z,2.57
2019-01-17T05:04:01.685Z,2.80
2019-01-17T05:06:30.905Z,2.80
2019-01-17T05:08:59.709Z,3.00
2019-01-17T05:11:28.484Z,2.97
2019-01-17T05:13:57.453Z,3.40
2019-01-17T05:16:26.448Z,3.40
2019-01-17T05:18:55.326Z,3.17
2019-01-17T05:21:24.221Z,3.60
2019-01-17T05:23:53.388Z,3.90
2019-01-17T05:26:22.567Z,4.27
2019-01-17T05:28:51.484Z,4.47
2019-01-17T05:31:20.261Z,4.10
2019-01-17T05:33:49.572Z,4.57
2019-01-17T05:36:18.556Z,4.50
2019-01-17T05:38:47.540Z,3.77
2019-01-17T05:41:16.408Z,3.80
2019-01-17T05:43:45.463Z,4.20
2019-01-17T05:46:14.362Z,3.80
2019-01-17T05:48:43.248Z,3.83
2019-01-17T05:51:12.236Z,4.33
2019-01-17T05:53:41.148Z,4.40
2019-01-17T05:56:10.204Z,4.13
2019-01-17T05:58:39.196Z,4.10
2019-01-17T06:01:08.428Z,4.00
2019-01-17T06:03:37.421Z,4.07
2019-01-17T06:06:06.424Z,4.40
2019-01-17T06:08:35.258Z,4.60
2019-01-17T06:11:04.201Z,4.00
2019-01-17T06:13:33.191Z,4.07
2019-01-17T06:16:02.763Z,4.33
2019-01-17T06:18:31.728Z,4.83
2019-01-17T06:21:00.668Z,5.20
2019-01-17T06:23:29.631Z,5.00
2019-01-17T06:25:58.764Z,5.10
2019-01-17T06:28:27.756Z,4.57
2019-01-17T06:30:56.637Z,5.67
2019-01-17T06:33:25.640Z,6.20
2019-01-17T06:35:54.437Z,6.37
2019-01-17T06:38:23.596Z,6.10
2019-01-17T06:40:52.713Z,5.73
2019-01-17T06:43:21.496Z,5.80
2019-01-17T06:45:50.460Z,5.80
2019-01-17T06:48:19.400Z,5.80
2019-01-17T06:50:48.274Z,5.80
2019-01-17T06:53:17.124Z,6.63
2019-01-17T06:55:46.096Z,5.43
2019-01-17T06:58:15.245Z,5.60
2019-01-17T07:00:44.156Z,5.67
2019-01-17T07:03:13.028Z,5.83
2019-01-17T07:05:41.924Z,5.90
2019-01-17T07:08:10.976Z,5.57
2019-01-17T07:10:39.956Z,5.40
2019-01-17T07:13:08.908Z,5.50
2019-01-17T07:15:37.804Z,5.70
2019-01-17T07:18:06.714Z,5.50
2019-01-17T07:20:35.677Z,5.87
2019-01-17T07:23:04.865Z,5.90
2019-01-17T07:25:33.735Z,5.53
2019-01-17T07:28:02.529Z,5.57
2019-01-17T07:30:31.505Z,5.87
2019-01-17T07:33:00.356Z,5.43
2019-01-17T07:35:29.254Z,5.30
2019-01-17T07:37:58.308Z,5.43
2019-01-17T07:40:27.121Z,5.60
2019-01-17T07:42:56.116Z,5.90
2019-01-17T07:45:29.504Z,6.23
2019-01-17T07:47:58.659Z,6.10
2019-01-17T07:50:27.561Z,5.20
2019-01-17T07:52:56.500Z,6.07
2019-01-17T07:55:25.320Z,5.50
2019-01-17T07:57:54.095Z,6.23
2019-01-17T08:00:23.647Z,5.93
2019-01-17T08:02:52.701Z,5.17
2019-01-17T08:05:21.648Z,5.40
2019-01-17T08:07:50.889Z,5.70
2019-01-17T08:10:20.447Z,5.93
2019-01-17T08:12:49.488Z,5.60
2019-01-17T08:15:18.861Z,6.20
2019-01-17T08:17:47.817Z,6.10
2019-01-17T08:20:19.270Z,6.27
2019-01-17T08:22:48.256Z,6.30
2019-01-17T08:25:17.243Z,6.30
2019-01-17T08:27:46.292Z,6.20
2019-01-17T08:30:17.488Z,5.97
2019-01-17T08:32:46.491Z,4.90
2019-01-17T08:35:16.632Z,6.10
2019-01-17T08:37:45.593Z,5.43
2019-01-17T08:40:20.646Z,5.13
2019-01-17T08:42:49.938Z,6.13
2019-01-17T08:45:18.919Z,5.50
2019-01-17T08:47:47.918Z,5.77
2019-01-17T08:50:16.944Z,4.90
2019-01-17T08:52:45.820Z,5.60
2019-01-17T08:55:14.756Z,5.53
2019-01-17T08:57:44.051Z,7.40
2019-01-17T09:00:18.076Z,5.20
2019-01-17T09:02:47.182Z,5.47
2019-01-17T09:05:16.180Z,4.80
2019-01-17T09:07:45.436Z,4.20
2019-01-17T09:10:17.486Z,3.20
2019-01-17T09:12:46.368Z,2.90
2019-01-17T09:15:16.752Z,3.50
2019-01-17T09:17:45.719Z,3.50
2019-01-17T09:20:14.916Z,3.40
2019-01-17T09:22:44.209Z,3.40
2019-01-17T09:25:14.388Z,4.40
2019-01-17T09:27:43.249Z,3.70
2019-01-17T09:30:14.711Z,3.40
2019-01-17T09:32:43.669Z,3.30
2019-01-17T09:35:13.368Z,2.80
2019-01-17T09:37:42.663Z,2.77
2019-01-17T09:40:14.502Z,4.23
2019-01-17T09:42:43.877Z,4.13
2019-01-17T09:45:12.980Z,4.07
2019-01-17T09:47:41.950Z,2.80
2019-01-17T09:50:14.401Z,2.90
2019-01-17T09:52:43.409Z,2.90
2019-01-17T09:55:12.390Z,2.40
2019-01-17T09:57:41.684Z,2.57
2019-01-17T10:00:22.384Z,2.10
2019-01-17T10:02:51.337Z,2.40
2019-01-17T10:05:20.187Z,2.30
2019-01-17T10:07:50.484Z,2.50
2019-01-17T10:10:19.905Z,2.63
2019-01-17T10:12:48.879Z,2.87
2019-01-17T10:15:39.724Z,2.07
2019-01-17T10:18:48.450Z,2.27
2019-01-17T10:21:54.468Z,1.63
2019-01-17T10:25:10.236Z,1.73
2019-01-17T10:28:06.228Z,2.07
2019-01-17T10:31:02.892Z,2.37
2019-01-17T10:33:57.864Z,1.77
2019-01-17T10:37:06.416Z,1.57
2019-01-17T10:39:59.204Z,1.20
2019-01-17T10:43:00.728Z,1.40
2019-01-17T10:46:07.472Z,1.37
2019-01-17T10:49:08.471Z,1.30
2019-01-17T10:52:23.536Z,1.20
2019-01-17T10:55:24.927Z,1.23
2019-01-17T10:58:33.532Z,1.07
2019-01-17T11:01:20.021Z,1.10
2019-01-17T11:04:04.492Z,1.10
2019-01-17T11:07:12.536Z,1.23
2019-01-17T11:10:08.896Z,1.10
2019-01-17T11:13:13.265Z,1.33
2019-01-17T11:16:00.783Z,1.23
2019-01-17T11:18:49.384Z,1.07
2019-01-17T11:22:04.574Z,1.13
2019-01-17T11:25:02.366Z,1.60
2019-01-17T11:28:01.168Z,1.30
2019-01-17T11:30:44.096Z,1.30
2019-01-17T11:33:30.205Z,1.70
2019-01-17T11:36:15.164Z,1.63
2019-01-17T11:39:03.808Z,1.17
2019-01-17T11:42:08.408Z,1.83
2019-01-17T11:45:20.485Z,1.70
2019-01-17T11:47:57.608Z,1.50
2019-01-17T11:51:00.940Z,1.60
2019-01-17T11:54:10.801Z,2.10
2019-01-17T11:57:36.099Z,1.43
2019-01-17T12:00:53.944Z,1.27
2019-01-17T12:03:46.300Z,1.50
2019-01-17T12:06:15.315Z,1.20
2019-01-17T12:08:44.275Z,1.30
2019-01-17T12:11:13.164Z,1.50
2019-01-17T12:13:42.065Z,1.80
2019-01-17T12:16:10.936Z,1.80
2019-01-17T12:18:39.818Z,1.50
2019-01-17T12:21:08.690Z,1.53
2019-01-17T12:23:37.560Z,1.33
2019-01-17T12:26:10.141Z,1.20
2019-01-17T12:28:39.204Z,1.20
2019-01-17T12:31:08.607Z,1.30
2019-01-17T12:33:37.396Z,1.20
2019-01-17T12:36:06.182Z,1.43
2019-01-17T12:38:35.065Z,1.40
2019-01-17T12:41:04.256Z,2.30
2019-01-17T12:43:33.239Z,1.30
2019-01-17T12:46:02.193Z,1.40
2019-01-17T12:48:31.056Z,1.70
2019-01-17T12:50:59.964Z,1.47
2019-01-17T12:53:28.844Z,1.73
2019-01-17T12:55:57.616Z,2.07
2019-01-17T12:58:26.604Z,1.50
2019-01-17T13:00:55.884Z,1.90
2019-01-17T13:03:24.852Z,1.17
2019-01-17T13:05:53.775Z,1.70
2019-01-17T13:08:22.852Z,1.60
2019-01-17T13:10:51.731Z,2.00
2019-01-17T13:13:20.564Z,1.50
2019-01-17T13:15:49.384Z,1.90
2019-01-17T13:18:18.285Z,1.70
2019-01-17T13:20:47.540Z,1.90
2019-01-17T13:23:16.600Z,1.60
2019-01-17T13:25:45.836Z,1.30
2019-01-17T13:28:15.003Z,2.20
2019-01-17T13:30:43.868Z,1.47
2019-01-17T13:33:13.049Z,1.90
2019-01-17T13:35:42.428Z,1.50
2019-01-17T13:38:11.223Z,1.90
2019-01-17T13:40:40.151Z,1.80
2019-01-17T13:43:09.118Z,2.10
2019-01-17T13:45:38.188Z,1.50
2019-01-17T13:48:07.491Z,1.33
2019-01-17T13:50:36.255Z,1.43
2019-01-17T13:53:05.520Z,1.50
2019-01-17T13:55:34.541Z,2.13
2019-01-17T13:58:03.429Z,1.50
2019-01-17T14:00:32.437Z,1.30
2019-01-17T14:03:01.232Z,1.30
2019-01-17T14:05:30.168Z,1.63
2019-01-17T14:07:59.146Z,1.43
2019-01-17T14:10:28.160Z,1.63
2019-01-17T14:12:57.292Z,1.70
2019-01-17T14:21:05.933Z,1.53
2019-01-17T14:23:35.019Z,1.77
2019-01-17T14:26:03.968Z,1.90
2019-01-17T14:28:32.872Z,1.20
2019-01-17T14:31:02.024Z,1.50
2019-01-17T14:33:31.000Z,4.80
2019-01-17T14:35:59.852Z,2.10
2019-01-17T14:38:28.977Z,2.17
2019-01-17T14:40:58.160Z,1.90
2019-01-17T14:43:27.058Z,1.57
2019-01-17T14:45:56.036Z,1.30
2019-01-17T14:48:24.884Z,1.70
2019-01-17T14:50:54.151Z,1.70
2019-01-17T14:53:23.111Z,1.73
2019-01-17T14:55:52.448Z,3.57
2019-01-17T14:58:21.648Z,3.05
2019-01-17T15:00:50.825Z,1.50
2019-01-17T15:03:19.824Z,1.50
2019-01-17T15:05:49.155Z,1.70
2019-01-17T15:08:18.153Z,1.32
2019-01-17T15:10:47.164Z,1.60
2019-01-17T15:13:16.388Z,1.50
2019-01-17T15:15:45.428Z,1.70
2019-01-17T15:18:14.600Z,1.63
2019-01-17T15:20:43.416Z,1.92
2019-01-17T15:23:13.024Z,1.90
2019-01-17T15:25:41.944Z,1.87
2019-01-17T15:28:10.960Z,2.08
2019-01-17T15:30:41.332Z,2.85
2019-01-17T15:33:10.497Z,2.62
2019-01-17T15:35:39.588Z,2.40
2019-01-17T15:38:08.665Z,1.98
2019-01-17T15:40:37.782Z,2.50
2019-01-17T15:43:07.919Z,2.87
2019-01-17T15:45:37.969Z,2.02
2019-01-17T15:48:07.040Z,2.12
2019-01-17T15:50:36.212Z,4.15
2019-01-17T15:53:05.208Z,2.22
2019-01-17T15:55:34.200Z,2.20
2019-01-17T15:58:03.252Z,1.85
2019-01-17T16:00:33.295Z,2.60
2019-01-17T16:03:02.299Z,2.40
2019-01-17T16:05:31.096Z,2.37
2019-01-17T16:08:00.004Z,1.90
2019-01-17T16:10:28.904Z,1.70
2019-01-17T16:12:57.857Z,1.65
2019-01-17T16:15:27.888Z,2.30
2019-01-17T16:17:56.883Z,1.80
2019-01-17T16:20:25.788Z,1.57
2019-01-17T16:22:55.008Z,1.77
2019-01-17T16:25:23.988Z,1.87
2019-01-17T16:27:53.371Z,1.70
2019-01-17T16:30:24.943Z,1.40
2019-01-17T16:32:54.119Z,1.30
2019-01-17T16:35:23.279Z,1.50
2019-01-17T16:37:52.784Z,1.98
2019-01-17T16:40:21.835Z,1.77
2019-01-17T16:42:50.809Z,1.87
2019-01-17T16:45:20.535Z,2.00
2019-01-17T16:47:49.724Z,2.22
2019-01-17T16:50:21.498Z,2.47
2019-01-17T16:52:50.492Z,1.90
2019-01-17T16:55:19.822Z,2.20
2019-01-17T16:57:49.526Z,2.20
2019-01-17T17:00:39.598Z,2.00
2019-01-17T17:03:08.448Z,2.17
2019-01-17T17:05:37.519Z,2.50
2019-01-17T17:08:06.601Z,2.05
2019-01-17T17:10:35.592Z,2.20
2019-01-17T17:13:04.851Z,2.90
2019-01-17T17:15:33.854Z,2.65
2019-01-17T17:18:02.901Z,3.30
2019-01-17T17:20:31.838Z,2.58
2019-01-17T17:23:00.876Z,2.92
2019-01-17T17:25:29.929Z,2.90
2019-01-17T17:27:58.734Z,3.17
2019-01-17T17:30:28.014Z,3.00
2019-01-17T17:32:57.161Z,2.30
2019-01-17T17:35:26.427Z,2.30
2019-01-17T17:37:55.329Z,4.08
2019-01-17T17:40:26.511Z,2.52
2019-01-17T17:42:55.564Z,3.17
2019-01-17T17:45:24.868Z,2.62
2019-01-17T17:47:54.408Z,2.62
2019-01-17T17:50:24.061Z,2.65
2019-01-17T17:52:53.016Z,3.22
2019-01-17T17:55:21.928Z,3.62
2019-01-17T17:57:50.807Z,4.22
2019-01-17T18:00:35.476Z,3.67
2019-01-17T18:03:04.908Z,4.10
2019-01-17T18:05:33.996Z,4.58
2019-01-17T18:08:02.943Z,2.90
2019-01-17T18:10:31.992Z,3.65
2019-01-17T18:13:00.919Z,3.98
2019-01-17T18:15:29.744Z,4.03
2019-01-17T18:17:58.680Z,4.37
2019-01-17T18:20:27.524Z,6.30
2019-01-17T18:22:56.456Z,4.20
2019-01-17T18:25:25.434Z,4.00
2019-01-17T18:27:54.449Z,3.20
2019-01-17T18:30:23.628Z,3.42
2019-01-17T18:32:52.591Z,2.80
2019-01-17T18:35:22.786Z,3.10
2019-01-17T18:37:51.772Z,3.27
2019-01-17T18:40:20.884Z,3.10
2019-01-17T18:42:50.426Z,3.20
2019-01-17T18:45:20.620Z,3.37
2019-01-17T18:47:49.558Z,3.75
2019-01-17T18:50:20.696Z,3.75
2019-01-17T18:52:50.079Z,4.55
2019-01-17T18:55:19.036Z,3.90
2019-01-17T18:57:48.198Z,5.37
2019-01-17T19:00:24.274Z,4.60
2019-01-17T19:02:53.888Z,4.40
2019-01-17T19:05:23.505Z,3.65
2019-01-17T19:07:53.209Z,4.03
2019-01-17T19:10:25.236Z,3.00
2019-01-17T19:12:55.157Z,2.70
2019-01-17T19:15:26.896Z,2.80
2019-01-17T19:17:55.941Z,2.42
2019-01-17T19:20:25.114Z,2.95
2019-01-17T19:22:54.206Z,3.02
2019-01-17T19:25:23.153Z,2.77
2019-01-17T19:27:52.044Z,3.00
2019-01-17T19:30:23.114Z,2.95
2019-01-17T19:32:52.997Z,2.95
2019-01-17T19:35:22.487Z,2.92
2019-01-17T19:37:51.516Z,2.40
2019-01-17T19:40:22.264Z,2.90
2019-01-17T19:42:51.240Z,2.70
2019-01-17T19:45:20.592Z,2.87
2019-01-17T19:47:49.455Z,2.98
2019-01-17T19:50:39.167Z,3.27
2019-01-17T19:53:09.441Z,2.72
2019-01-17T19:55:38.362Z,3.02
2019-01-17T19:58:07.228Z,3.02
2019-01-17T20:00:36.197Z,2.70
2019-01-17T20:03:05.577Z,4.00
2019-01-17T20:05:34.836Z,4.17
2019-01-17T20:08:03.828Z,3.75
2019-01-17T20:10:35.033Z,3.27
2019-01-17T20:13:05.179Z,2.95
2019-01-17T20:15:34.436Z,2.92
2019-01-17T20:18:03.532Z,2.70
2019-01-17T20:20:33.844Z,4.15
2019-01-17T20:23:02.940Z,4.10
2019-01-17T20:25:31.842Z,4.08
2019-01-17T20:28:00.983Z,3.50
2019-01-17T20:30:32.081Z,4.83
2019-01-17T20:33:02.520Z,6.70
2019-01-17T20:35:31.491Z,4.00
2019-01-17T20:38:00.513Z,3.67
2019-01-17T20:40:29.593Z,4.03
2019-01-17T20:42:58.555Z,2.87
2019-01-17T20:45:27.524Z,3.20
2019-01-17T20:47:56.893Z,3.80
2019-01-17T20:50:28.231Z,3.33
2019-01-17T20:52:57.240Z,3.33
2019-01-17T20:55:26.120Z,3.60
2019-01-17T20:57:55.100Z,3.50
2019-01-17T21:01:05.424Z,4.12
2019-01-17T21:03:35.278Z,3.70
2019-01-17T21:06:04.292Z,3.98
2019-01-17T21:08:33.227Z,4.00
2019-01-17T21:11:02.211Z,4.70
2019-01-17T21:13:31.077Z,4.00
2019-01-17T21:16:01.333Z,4.17
2019-01-17T21:18:30.788Z,3.95
2019-01-17T21:20:59.774Z,3.75
2019-01-17T21:23:28.775Z,3.67
2019-01-17T21:25:57.649Z,4.00
2019-01-17T21:28:26.816Z,4.80
2019-01-17T21:30:55.937Z,5.70
2019-01-17T21:33:25.222Z,3.20
2019-01-17T21:35:54.493Z,3.00
2019-01-17T21:38:23.717Z,4.15
2019-01-17T21:40:52.711Z,4.12
2019-01-17T21:43:21.884Z,3.60
2019-01-17T21:45:50.653Z,4.00
2019-01-17T21:48:19.556Z,3.80
2019-01-17T21:50:48.488Z,3.50
2019-01-17T21:53:17.304Z,5.35
2019-01-17T21:55:46.203Z,4.40
2019-01-17T21:58:15.064Z,3.65
2019-01-17T22:00:43.870Z,3.90
2019-01-17T22:03:12.699Z,3.70
2019-01-17T22:05:42.607Z,4.15
2019-01-17T22:08:11.840Z,4.40
2019-01-17T22:10:40.612Z,3.12
2019-01-17T22:13:09.812Z,4.28
2019-01-17T22:15:39.831Z,4.17
2019-01-17T22:18:08.768Z,5.08
2019-01-17T22:20:37.770Z,4.47
2019-01-17T22:23:06.709Z,4.30
2019-01-17T22:25:35.508Z,4.42
2019-01-17T22:28:04.440Z,3.98
2019-01-17T22:30:33.432Z,4.35
2019-01-17T22:33:03.027Z,4.62
2019-01-17T22:35:31.992Z,4.05
2019-01-17T22:38:00.988Z,4.60
2019-01-17T22:40:29.956Z,4.00
2019-01-17T22:42:58.828Z,3.95
2019-01-17T22:45:29.604Z,4.37
2019-01-17T22:47:58.472Z,3.60
2019-01-17T22:50:27.557Z,4.33
2019-01-17T22:52:56.406Z,3.70
2019-01-17T22:55:25.279Z,4.60
2019-01-17T22:57:54.055Z,3.80
2019-01-17T23:00:50.750Z,3.92
2019-01-17T23:03:25.162Z,3.50
2019-01-17T23:05:54.063Z,3.80
2019-01-17T23:08:23.146Z,3.50
2019-01-17T23:10:52.113Z,4.50
2019-01-17T23:13:21.082Z,4.50
2019-01-17T23:15:49.920Z,3.87
2019-01-17T23:18:18.925Z,3.95
2019-01-17T23:20:47.784Z,3.92
2019-01-17T23:23:16.936Z,3.90
2019-01-17T23:25:45.723Z,3.50
2019-01-17T23:28:14.924Z,4.28
2019-01-17T23:30:43.888Z,5.00
2019-01-17T23:33:12.760Z,3.77
2019-01-17T23:35:41.644Z,4.45
2019-01-17T23:38:10.619Z,4.75
2019-01-17T23:40:39.535Z,4.50
2019-01-17T23:43:08.524Z,4.85
2019-01-17T23:45:37.524Z,5.10
2019-01-17T23:48:06.427Z,4.33
2019-01-17T23:50:35.309Z,4.53
2019-01-17T23:53:04.477Z,3.87
2019-01-17T23:55:33.464Z,5.67
2019-01-17T23:58:02.360Z,3.80
